sensor_id;sensor_type;location;lat;lon;timestamp;P1;durP1;ratioP1;P2;durP2;ratioP2
7501;SDS011;3792;47.740;7.606;2023-05-07T08:10:48;3.97;;;2.33;;
7501;SDS011;3792;47.740;7.606;2023-05-07T08:13:15;5.30;;;3.33;;
7501;SDS011;3792;47.740;7.606;2023-05-07T08:15:43;4.20;;;3.20;;
7501;SDS011;3792;47.740;7.606;2023-05-07T08:18:10;2.93;;;2.73;;
7501;SDS011;3792;47.740;7.606;2023-05-07T08:20:37;2.83;;;2.57;;
7501;SDS011;3792;47.740;7.606;2023-05-07T08:23:04;3.67;;;3.27;;
7501;SDS011;3792;47.740;7.606;2023-05-07T08:25:32;5.60;;;3.53;;
7501;SDS011;3792;47.740;7.606;2023-05-07T08:28:01;3.83;;;3.17;;
7501;SDS011;3792;47.740;7.606;2023-05-07T08:30:29;4.30;;;3.90;;
7501;SDS011;3792;47.740;7.606;2023-05-07T08:32:56;3.60;;;3.10;;
7501;SDS011;3792;47.740;7.606;2023-05-07T08:35:23;5.57;;;3.70;;
7501;SDS011;3792;47.740;7.606;2023-05-07T08:37:50;3.47;;;2.90;;
7501;SDS011;3792;47.740;7.606;2023-05-07T08:40:17;7.30;;;3.60;;
7501;SDS011;3792;47.740;7.606;2023-05-07T08:42:44;5.37;;;3.67;;
7501;SDS011;3792;47.740;7.606;2023-05-07T08:45:16;5.50;;;3.63;;
7501;SDS011;3792;47.740;7.606;2023-05-07T08:47:46;3.33;;;3.03;;
7501;SDS011;3792;47.740;7.606;2023-05-07T08:50:18;4.27;;;3.87;;
7501;SDS011;3792;47.740;7.606;2023-05-07T08:52:46;4.00;;;3.57;;
7501;SDS011;3792;47.740;7.606;2023-05-07T08:55:14;5.07;;;4.40;;
7501;SDS011;3792;47.740;7.606;2023-05-07T08:57:41;6.10;;;3.80;;
7501;SDS011;3792;47.740;7.606;2023-05-07T09:00:08;4.60;;;4.17;;
7501;SDS011;3792;47.740;7.606;2023-05-07T09:02:38;3.47;;;3.17;;
7501;SDS011;3792;47.740;7.606;2023-05-07T09:05:05;4.77;;;3.57;;
7501;SDS011;3792;47.740;7.606;2023-05-07T09:07:33;4.20;;;3.80;;
7501;SDS011;3792;47.740;7.606;2023-05-07T09:10:01;4.37;;;3.30;;
7501;SDS011;3792;47.740;7.606;2023-05-07T09:12:29;4.90;;;3.30;;
7501;SDS011;3792;47.740;7.606;2023-05-07T09:14:56;5.10;;;3.53;;
7501;SDS011;3792;47.740;7.606;2023-05-07T09:17:23;5.00;;;3.23;;
7501;SDS011;3792;47.740;7.606;2023-05-07T09:19:52;5.80;;;3.13;;
7501;SDS011;3792;47.740;7.606;2023-05-07T09:22:19;5.53;;;3.20;;
7501;SDS011;3792;47.740;7.606;2023-05-07T09:24:47;3.03;;;2.83;;
7501;SDS011;3792;47.740;7.606;2023-05-07T09:27:14;4.83;;;3.37;;
7501;SDS011;3792;47.740;7.606;2023-05-07T09:29:42;4.33;;;2.70;;
7501;SDS011;3792;47.740;7.606;2023-05-07T09:32:10;5.77;;;3.13;;
7501;SDS011;3792;47.740;7.606;2023-05-07T09:34:41;2.87;;;2.67;;
7501;SDS011;3792;47.740;7.606;2023-05-07T09:37:10;4.80;;;2.47;;
7501;SDS011;3792;47.740;7.606;2023-05-07T09:39:39;7.00;;;3.20;;
7501;SDS011;3792;47.740;7.606;2023-05-07T09:42:07;3.57;;;2.90;;
7501;SDS011;3792;47.740;7.606;2023-05-07T09:44:35;3.37;;;2.80;;
7501;SDS011;3792;47.740;7.606;2023-05-07T09:47:04;10.60;;;3.30;;
7501;SDS011;3792;47.740;7.606;2023-05-07T09:49:33;4.23;;;2.90;;
7501;SDS011;3792;47.740;7.606;2023-05-07T09:52:01;3.30;;;3.03;;
7501;SDS011;3792;47.740;7.606;2023-05-07T09:54:32;4.10;;;3.07;;
7501;SDS011;3792;47.740;7.606;2023-05-07T09:57:01;5.47;;;2.70;;
7501;SDS011;3792;47.740;7.606;2023-05-07T09:59:28;3.50;;;2.67;;
7501;SDS011;3792;47.740;7.606;2023-05-07T10:01:58;3.33;;;2.40;;
7501;SDS011;3792;47.740;7.606;2023-05-07T10:04:26;3.33;;;2.70;;
7501;SDS011;3792;47.740;7.606;2023-05-07T10:06:53;4.33;;;2.80;;
7501;SDS011;3792;47.740;7.606;2023-05-07T10:09:21;3.00;;;2.80;;
7501;SDS011;3792;47.740;7.606;2023-05-07T10:11:52;3.40;;;3.10;;
7501;SDS011;3792;47.740;7.606;2023-05-07T10:14:20;3.10;;;2.40;;
7501;SDS011;3792;47.740;7.606;2023-05-07T10:16:48;4.23;;;2.90;;
7501;SDS011;3792;47.740;7.606;2023-05-07T10:19:15;3.13;;;2.70;;
7501;SDS011;3792;47.740;7.606;2023-05-07T10:21:44;4.67;;;2.83;;
7501;SDS011;3792;47.740;7.606;2023-05-07T10:24:19;2.67;;;2.47;;
7501;SDS011;3792;47.740;7.606;2023-05-07T10:26:50;5.03;;;3.20;;
7501;SDS011;3792;47.740;7.606;2023-05-07T10:29:21;4.30;;;3.03;;
7501;SDS011;3792;47.740;7.606;2023-05-07T10:31:58;3.93;;;2.40;;
7501;SDS011;3792;47.740;7.606;2023-05-07T10:34:33;4.17;;;2.90;;
7501;SDS011;3792;47.740;7.606;2023-05-07T10:37:05;5.70;;;2.67;;
7501;SDS011;3792;47.740;7.606;2023-05-07T10:39:32;3.50;;;2.90;;
7501;SDS011;3792;47.740;7.606;2023-05-07T10:42:11;2.47;;;2.30;;
7501;SDS011;3792;47.740;7.606;2023-05-07T10:44:39;3.07;;;2.77;;
7501;SDS011;3792;47.740;7.606;2023-05-07T10:47:08;4.73;;;2.70;;
7501;SDS011;3792;47.740;7.606;2023-05-07T10:49:36;3.63;;;3.13;;
7501;SDS011;3792;47.740;7.606;2023-05-07T10:52:24;4.83;;;2.97;;
7501;SDS011;3792;47.740;7.606;2023-05-07T10:55:18;4.90;;;2.80;;
7501;SDS011;3792;47.740;7.606;2023-05-07T10:57:50;3.20;;;2.90;;
7501;SDS011;3792;47.740;7.606;2023-05-07T11:03:09;3.13;;;2.80;;
7501;SDS011;3792;47.740;7.606;2023-05-07T11:05:37;3.77;;;2.90;;
7501;SDS011;3792;47.740;7.606;2023-05-07T11:08:05;3.70;;;3.30;;
7501;SDS011;3792;47.740;7.606;2023-05-07T11:10:48;2.97;;;2.77;;
7501;SDS011;3792;47.740;7.606;2023-05-07T11:13:19;4.50;;;3.50;;
7501;SDS011;3792;47.740;7.606;2023-05-07T11:16:16;2.80;;;2.60;;
7501;SDS011;3792;47.740;7.606;2023-05-07T11:18:47;2.73;;;2.50;;
7501;SDS011;3792;47.740;7.606;2023-05-07T11:24:01;2.73;;;2.53;;
7501;SDS011;3792;47.740;7.606;2023-05-07T11:26:31;4.07;;;2.77;;
7501;SDS011;3792;47.740;7.606;2023-05-07T11:29:11;3.33;;;2.47;;
7501;SDS011;3792;47.740;7.606;2023-05-07T11:31:39;2.50;;;2.30;;
7501;SDS011;3792;47.740;7.606;2023-05-07T11:34:07;2.87;;;2.50;;
7501;SDS011;3792;47.740;7.606;2023-05-07T11:36:35;3.80;;;2.57;;
7501;SDS011;3792;47.740;7.606;2023-05-07T11:39:22;2.77;;;2.17;;
7501;SDS011;3792;47.740;7.606;2023-05-07T11:41:53;2.60;;;2.20;;
7501;SDS011;3792;47.740;7.606;2023-05-07T11:44:22;2.67;;;1.80;;
7501;SDS011;3792;47.740;7.606;2023-05-07T11:46:49;3.93;;;2.20;;
7501;SDS011;3792;47.740;7.606;2023-05-07T11:49:16;2.63;;;1.90;;
7501;SDS011;3792;47.740;7.606;2023-05-07T11:51:44;2.13;;;1.97;;
7501;SDS011;3792;47.740;7.606;2023-05-07T11:54:11;2.20;;;2.00;;
7501;SDS011;3792;47.740;7.606;2023-05-07T11:56:43;2.33;;;2.13;;
7501;SDS011;3792;47.740;7.606;2023-05-07T11:59:11;3.13;;;2.10;;
7501;SDS011;3792;47.740;7.606;2023-05-07T12:01:39;1.90;;;1.80;;
7501;SDS011;3792;47.740;7.606;2023-05-07T12:04:06;2.83;;;2.07;;
7501;SDS011;3792;47.740;7.606;2023-05-07T12:06:35;2.40;;;2.20;;
7501;SDS011;3792;47.740;7.606;2023-05-07T12:09:03;3.87;;;2.30;;
7501;SDS011;3792;47.740;7.606;2023-05-07T12:11:32;2.67;;;2.10;;
7501;SDS011;3792;47.740;7.606;2023-05-07T12:14:00;2.83;;;2.10;;
7501;SDS011;3792;47.740;7.606;2023-05-07T12:16:27;2.20;;;2.00;;
7501;SDS011;3792;47.740;7.606;2023-05-07T12:18:56;2.23;;;1.97;;
7501;SDS011;3792;47.740;7.606;2023-05-07T12:21:24;2.70;;;1.93;;
7501;SDS011;3792;47.740;7.606;2023-05-07T12:23:51;2.53;;;2.03;;
7501;SDS011;3792;47.740;7.606;2023-05-07T12:26:19;2.60;;;2.30;;
7501;SDS011;3792;47.740;7.606;2023-05-07T12:28:47;2.40;;;2.20;;
7501;SDS011;3792;47.740;7.606;2023-05-07T12:31:14;2.47;;;2.27;;
7501;SDS011;3792;47.740;7.606;2023-05-07T12:33:42;2.40;;;2.17;;
7501;SDS011;3792;47.740;7.606;2023-05-07T12:36:11;2.00;;;1.80;;
7501;SDS011;3792;47.740;7.606;2023-05-07T12:38:39;2.50;;;2.30;;
7501;SDS011;3792;47.740;7.606;2023-05-07T12:41:07;3.13;;;2.27;;
7501;SDS011;3792;47.740;7.606;2023-05-07T12:43:35;2.27;;;2.07;;
7501;SDS011;3792;47.740;7.606;2023-05-07T12:46:03;3.73;;;2.33;;
7501;SDS011;3792;47.740;7.606;2023-05-07T12:48:32;2.63;;;2.43;;
7501;SDS011;3792;47.740;7.606;2023-05-07T12:51:00;2.50;;;2.30;;
7501;SDS011;3792;47.740;7.606;2023-05-07T12:53:29;2.33;;;2.20;;
7501;SDS011;3792;47.740;7.606;2023-05-07T12:55:57;3.77;;;2.63;;
7501;SDS011;3792;47.740;7.606;2023-05-07T12:58:26;2.47;;;2.33;;
7501;SDS011;3792;47.740;7.606;2023-05-07T13:00:55;2.60;;;2.40;;
7501;SDS011;3792;47.740;7.606;2023-05-07T13:03:26;2.33;;;2.17;;
7501;SDS011;3792;47.740;7.606;2023-05-07T13:05:55;3.40;;;2.90;;
7501;SDS011;3792;47.740;7.606;2023-05-07T13:08:27;4.17;;;2.90;;
7501;SDS011;3792;47.740;7.606;2023-05-07T13:10:57;5.03;;;2.63;;
7501;SDS011;3792;47.740;7.606;2023-05-07T13:13:24;3.03;;;2.80;;
7501;SDS011;3792;47.740;7.606;2023-05-07T13:15:51;3.43;;;2.40;;
7501;SDS011;3792;47.740;7.606;2023-05-07T13:18:19;2.90;;;2.70;;
7501;SDS011;3792;47.740;7.606;2023-05-07T13:20:46;3.20;;;2.60;;
7501;SDS011;3792;47.740;7.606;2023-05-07T13:23:13;3.17;;;2.70;;
7501;SDS011;3792;47.740;7.606;2023-05-07T13:25:41;2.50;;;2.10;;
7501;SDS011;3792;47.740;7.606;2023-05-07T13:28:08;3.63;;;2.50;;
7501;SDS011;3792;47.740;7.606;2023-05-07T13:30:35;3.57;;;2.40;;
7501;SDS011;3792;47.740;7.606;2023-05-07T13:33:03;2.70;;;2.50;;
7501;SDS011;3792;47.740;7.606;2023-05-07T13:35:30;2.80;;;2.60;;
7501;SDS011;3792;47.740;7.606;2023-05-07T13:37:57;4.00;;;2.50;;
7501;SDS011;3792;47.740;7.606;2023-05-07T13:40:24;2.40;;;2.20;;
7501;SDS011;3792;47.740;7.606;2023-05-07T13:42:53;2.00;;;1.90;;
7501;SDS011;3792;47.740;7.606;2023-05-07T13:45:20;3.97;;;2.70;;
7501;SDS011;3792;47.740;7.606;2023-05-07T13:47:50;2.47;;;2.30;;
7501;SDS011;3792;47.740;7.606;2023-05-07T13:50:18;4.23;;;2.57;;
7501;SDS011;3792;47.740;7.606;2023-05-07T13:52:45;3.20;;;2.40;;
7501;SDS011;3792;47.740;7.606;2023-05-07T13:55:15;2.30;;;2.13;;
7501;SDS011;3792;47.740;7.606;2023-05-07T13:57:42;2.50;;;2.30;;
7501;SDS011;3792;47.740;7.606;2023-05-07T14:00:11;2.20;;;2.10;;
7501;SDS011;3792;47.740;7.606;2023-05-07T14:02:39;3.47;;;2.30;;
7501;SDS011;3792;47.740;7.606;2023-05-07T14:05:06;2.03;;;1.93;;
7501;SDS011;3792;47.740;7.606;2023-05-07T14:07:35;2.70;;;2.50;;
7501;SDS011;3792;47.740;7.606;2023-05-07T14:10:02;2.70;;;2.50;;
7501;SDS011;3792;47.740;7.606;2023-05-07T14:12:30;4.40;;;2.40;;
7501;SDS011;3792;47.740;7.606;2023-05-07T14:14:57;2.60;;;2.40;;
7501;SDS011;3792;47.740;7.606;2023-05-07T14:17:26;2.67;;;2.47;;
7501;SDS011;3792;47.740;7.606;2023-05-07T14:19:53;5.17;;;2.77;;
7501;SDS011;3792;47.740;7.606;2023-05-07T14:22:20;3.43;;;2.90;;
7501;SDS011;3792;47.740;7.606;2023-05-07T14:24:48;5.80;;;2.67;;
7501;SDS011;3792;47.740;7.606;2023-05-07T14:27:16;3.40;;;3.10;;
7501;SDS011;3792;47.740;7.606;2023-05-07T14:29:43;3.43;;;2.73;;
7501;SDS011;3792;47.740;7.606;2023-05-07T14:32:10;3.13;;;2.83;;
7501;SDS011;3792;47.740;7.606;2023-05-07T14:34:39;3.10;;;2.80;;
7501;SDS011;3792;47.740;7.606;2023-05-07T14:37:06;3.40;;;2.60;;
7501;SDS011;3792;47.740;7.606;2023-05-07T14:39:33;4.47;;;2.80;;
7501;SDS011;3792;47.740;7.606;2023-05-07T14:42:00;3.83;;;2.80;;
7501;SDS011;3792;47.740;7.606;2023-05-07T14:44:27;5.50;;;2.90;;
7501;SDS011;3792;47.740;7.606;2023-05-07T14:46:54;5.63;;;2.90;;
7501;SDS011;3792;47.740;7.606;2023-05-07T14:49:21;4.50;;;2.53;;
7501;SDS011;3792;47.740;7.606;2023-05-07T14:51:50;3.77;;;3.23;;
7501;SDS011;3792;47.740;7.606;2023-05-07T14:54:17;3.23;;;3.03;;
7501;SDS011;3792;47.740;7.606;2023-05-07T14:56:44;3.03;;;2.83;;
7501;SDS011;3792;47.740;7.606;2023-05-07T14:59:11;3.17;;;2.93;;
7501;SDS011;3792;47.740;7.606;2023-05-07T15:01:38;5.30;;;3.17;;
7501;SDS011;3792;47.740;7.606;2023-05-07T15:04:10;3.20;;;3.00;;
7501;SDS011;3792;47.740;7.606;2023-05-07T15:06:37;4.67;;;2.43;;
7501;SDS011;3792;47.740;7.606;2023-05-07T15:09:06;3.27;;;2.63;;
7501;SDS011;3792;47.740;7.606;2023-05-07T15:11:33;4.57;;;2.70;;
7501;SDS011;3792;47.740;7.606;2023-05-07T15:14:01;3.13;;;2.83;;
7501;SDS011;3792;47.740;7.606;2023-05-07T15:16:28;3.53;;;2.83;;
7501;SDS011;3792;47.740;7.606;2023-05-07T15:18:55;2.27;;;2.17;;
7501;SDS011;3792;47.740;7.606;2023-05-07T15:21:22;3.63;;;3.00;;
7501;SDS011;3792;47.740;7.606;2023-05-07T15:23:49;2.97;;;2.67;;
7501;SDS011;3792;47.740;7.606;2023-05-07T15:26:17;3.03;;;2.77;;
7501;SDS011;3792;47.740;7.606;2023-05-07T15:28:45;4.00;;;2.90;;
7501;SDS011;3792;47.740;7.606;2023-05-07T15:31:12;6.03;;;2.97;;
7501;SDS011;3792;47.740;7.606;2023-05-07T15:33:39;18.07;;;6.03;;
7501;SDS011;3792;47.740;7.606;2023-05-07T15:36:07;36.07;;;11.30;;
7501;SDS011;3792;47.740;7.606;2023-05-07T15:38:34;44.57;;;7.03;;
7501;SDS011;3792;47.740;7.606;2023-05-07T15:41:01;3.50;;;3.00;;
7501;SDS011;3792;47.740;7.606;2023-05-07T15:43:29;3.63;;;2.73;;
7501;SDS011;3792;47.740;7.606;2023-05-07T15:45:57;16.03;;;4.23;;
7501;SDS011;3792;47.740;7.606;2023-05-07T15:48:25;3.47;;;2.73;;
7501;SDS011;3792;47.740;7.606;2023-05-07T15:50:52;7.93;;;3.43;;
7501;SDS011;3792;47.740;7.606;2023-05-07T15:53:19;5.23;;;3.13;;
7501;SDS011;3792;47.740;7.606;2023-05-07T15:55:46;11.90;;;4.40;;
7501;SDS011;3792;47.740;7.606;2023-05-07T15:58:13;5.70;;;3.50;;
7501;SDS011;3792;47.740;7.606;2023-05-07T16:00:45;7.23;;;3.10;;
7501;SDS011;3792;47.740;7.606;2023-05-07T16:03:12;4.60;;;2.73;;
7501;SDS011;3792;47.740;7.606;2023-05-07T16:05:40;5.80;;;3.57;;
7501;SDS011;3792;47.740;7.606;2023-05-07T16:08:07;4.33;;;3.00;;
7501;SDS011;3792;47.740;7.606;2023-05-07T16:10:34;6.60;;;4.43;;
7501;SDS011;3792;47.740;7.606;2023-05-07T16:13:01;7.67;;;3.73;;
7501;SDS011;3792;47.740;7.606;2023-05-07T16:15:28;4.53;;;3.20;;
7501;SDS011;3792;47.740;7.606;2023-05-07T16:17:57;6.43;;;3.20;;
7501;SDS011;3792;47.740;7.606;2023-05-07T16:20:25;8.20;;;3.60;;
7501;SDS011;3792;47.740;7.606;2023-05-07T16:22:55;5.10;;;3.30;;
7501;SDS011;3792;47.740;7.606;2023-05-07T16:25:22;10.70;;;4.00;;
7501;SDS011;3792;47.740;7.606;2023-05-07T16:27:51;8.43;;;6.17;;
7501;SDS011;3792;47.740;7.606;2023-05-07T16:30:19;4.30;;;3.60;;
7501;SDS011;3792;47.740;7.606;2023-05-07T16:32:46;6.90;;;3.67;;
7501;SDS011;3792;47.740;7.606;2023-05-07T16:35:14;5.30;;;3.57;;
7501;SDS011;3792;47.740;7.606;2023-05-07T16:37:42;6.90;;;3.50;;
7501;SDS011;3792;47.740;7.606;2023-05-07T16:40:09;6.00;;;3.90;;
7501;SDS011;3792;47.740;7.606;2023-05-07T16:42:36;7.33;;;3.60;;
7501;SDS011;3792;47.740;7.606;2023-05-07T16:45:04;6.37;;;3.57;;
7501;SDS011;3792;47.740;7.606;2023-05-07T16:47:31;5.40;;;3.00;;
7501;SDS011;3792;47.740;7.606;2023-05-07T16:49:59;7.23;;;3.33;;
7501;SDS011;3792;47.740;7.606;2023-05-07T16:52:30;8.33;;;3.40;;
7501;SDS011;3792;47.740;7.606;2023-05-07T16:54:58;3.50;;;2.67;;
7501;SDS011;3792;47.740;7.606;2023-05-07T16:57:25;4.63;;;2.67;;
7501;SDS011;3792;47.740;7.606;2023-05-07T16:59:54;5.07;;;2.57;;
7501;SDS011;3792;47.740;7.606;2023-05-07T17:02:23;2.50;;;1.80;;
7501;SDS011;3792;47.740;7.606;2023-05-07T17:04:50;6.03;;;2.53;;
7501;SDS011;3792;47.740;7.606;2023-05-07T17:07:17;3.50;;;2.40;;
7501;SDS011;3792;47.740;7.606;2023-05-07T17:09:46;5.13;;;2.50;;
7501;SDS011;3792;47.740;7.606;2023-05-07T17:12:13;3.60;;;2.50;;
7501;SDS011;3792;47.740;7.606;2023-05-07T17:14:40;2.63;;;2.43;;
7501;SDS011;3792;47.740;7.606;2023-05-07T17:17:07;2.50;;;2.10;;
7501;SDS011;3792;47.740;7.606;2023-05-07T17:19:35;2.43;;;2.20;;
7501;SDS011;3792;47.740;7.606;2023-05-07T17:22:03;3.77;;;2.03;;
7501;SDS011;3792;47.740;7.606;2023-05-07T17:24:32;1.97;;;1.63;;
7501;SDS011;3792;47.740;7.606;2023-05-07T17:27:01;2.77;;;1.77;;
7501;SDS011;3792;47.740;7.606;2023-05-07T17:29:28;2.30;;;1.83;;
7501;SDS011;3792;47.740;7.606;2023-05-07T17:31:55;2.37;;;1.70;;
7501;SDS011;3792;47.740;7.606;2023-05-07T17:34:23;3.37;;;1.83;;
7501;SDS011;3792;47.740;7.606;2023-05-07T17:36:50;1.97;;;1.60;;
7501;SDS011;3792;47.740;7.606;2023-05-07T17:39:18;3.23;;;2.07;;
7501;SDS011;3792;47.740;7.606;2023-05-07T17:41:45;7.47;;;1.77;;
7501;SDS011;3792;47.740;7.606;2023-05-07T17:44:14;2.87;;;2.00;;
7501;SDS011;3792;47.740;7.606;2023-05-07T17:46:41;2.43;;;1.50;;
7501;SDS011;3792;47.740;7.606;2023-05-07T17:49:08;2.87;;;1.87;;
7501;SDS011;3792;47.740;7.606;2023-05-07T17:51:35;1.63;;;1.53;;
7501;SDS011;3792;47.740;7.606;2023-05-07T17:54:02;2.47;;;1.70;;
7501;SDS011;3792;47.740;7.606;2023-05-07T17:56:29;2.90;;;1.77;;
7501;SDS011;3792;47.740;7.606;2023-05-07T17:58:56;3.13;;;1.63;;
7501;SDS011;3792;47.740;7.606;2023-05-07T18:01:25;3.37;;;1.47;;
7501;SDS011;3792;47.740;7.606;2023-05-07T18:03:52;5.13;;;1.53;;
7501;SDS011;3792;47.740;7.606;2023-05-07T18:06:19;1.63;;;1.50;;
7501;SDS011;3792;47.740;7.606;2023-05-07T18:08:47;2.20;;;1.40;;
7501;SDS011;3792;47.740;7.606;2023-05-07T18:11:14;3.13;;;1.80;;
7501;SDS011;3792;47.740;7.606;2023-05-07T18:13:41;2.43;;;1.87;;
7501;SDS011;3792;47.740;7.606;2023-05-07T18:16:08;2.67;;;1.80;;
7501;SDS011;3792;47.740;7.606;2023-05-07T18:18:37;2.47;;;1.80;;
7501;SDS011;3792;47.740;7.606;2023-05-07T18:21:04;4.57;;;2.10;;
7501;SDS011;3792;47.740;7.606;2023-05-07T18:23:31;1.70;;;1.57;;
7501;SDS011;3792;47.740;7.606;2023-05-07T18:25:59;4.57;;;1.97;;
7501;SDS011;3792;47.740;7.606;2023-05-07T18:28:26;2.80;;;1.73;;
7501;SDS011;3792;47.740;7.606;2023-05-07T18:30:53;2.03;;;1.80;;
7501;SDS011;3792;47.740;7.606;2023-05-07T18:33:20;1.53;;;1.43;;
7501;SDS011;3792;47.740;7.606;2023-05-07T18:35:49;2.53;;;1.40;;
7501;SDS011;3792;47.740;7.606;2023-05-07T18:38:16;3.33;;;1.80;;
7501;SDS011;3792;47.740;7.606;2023-05-07T18:40:43;2.43;;;1.60;;
7501;SDS011;3792;47.740;7.606;2023-05-07T18:43:11;2.20;;;1.80;;
7501;SDS011;3792;47.740;7.606;2023-05-07T18:45:38;2.53;;;2.00;;
7501;SDS011;3792;47.740;7.606;2023-05-07T18:48:05;1.60;;;1.47;;
7501;SDS011;3792;47.740;7.606;2023-05-07T18:50:33;2.50;;;1.67;;
7501;SDS011;3792;47.740;7.606;2023-05-07T18:53:01;3.53;;;1.87;;
7501;SDS011;3792;47.740;7.606;2023-05-07T18:55:28;2.73;;;1.90;;
7501;SDS011;3792;47.740;7.606;2023-05-07T18:57:56;3.20;;;1.57;;
7501;SDS011;3792;47.740;7.606;2023-05-07T19:00:23;3.33;;;1.93;;
7501;SDS011;3792;47.740;7.606;2023-05-07T19:02:50;2.33;;;2.03;;
7501;SDS011;3792;47.740;7.606;2023-05-07T19:05:17;1.73;;;1.63;;
7501;SDS011;3792;47.740;7.606;2023-05-07T19:07:44;1.60;;;1.50;;
7501;SDS011;3792;47.740;7.606;2023-05-07T19:10:13;3.83;;;1.80;;
7501;SDS011;3792;47.740;7.606;2023-05-07T19:12:41;2.50;;;1.60;;
7501;SDS011;3792;47.740;7.606;2023-05-07T19:15:08;2.63;;;1.60;;
7501;SDS011;3792;47.740;7.606;2023-05-07T19:17:36;1.70;;;1.60;;
7501;SDS011;3792;47.740;7.606;2023-05-07T19:20:03;1.77;;;1.67;;
7501;SDS011;3792;47.740;7.606;2023-05-07T19:22:31;2.43;;;1.50;;
7501;SDS011;3792;47.740;7.606;2023-05-07T19:24:59;2.17;;;1.70;;
7501;SDS011;3792;47.740;7.606;2023-05-07T19:27:27;2.23;;;2.03;;
7501;SDS011;3792;47.740;7.606;2023-05-07T19:29:54;2.90;;;1.67;;
7501;SDS011;3792;47.740;7.606;2023-05-07T19:32:22;3.83;;;1.60;;
7501;SDS011;3792;47.740;7.606;2023-05-07T19:34:49;2.17;;;1.70;;
7501;SDS011;3792;47.740;7.606;2023-05-07T19:37:16;3.07;;;1.90;;
7501;SDS011;3792;47.740;7.606;2023-05-07T19:39:46;2.63;;;1.73;;
7501;SDS011;3792;47.740;7.606;2023-05-07T19:42:14;3.77;;;1.87;;
7501;SDS011;3792;47.740;7.606;2023-05-07T19:44:42;2.57;;;1.83;;
7501;SDS011;3792;47.740;7.606;2023-05-07T19:47:09;1.70;;;1.60;;
7501;SDS011;3792;47.740;7.606;2023-05-07T19:49:36;1.60;;;1.50;;
7501;SDS011;3792;47.740;7.606;2023-05-07T19:52:04;4.00;;;1.90;;
7501;SDS011;3792;47.740;7.606;2023-05-07T19:54:31;3.13;;;1.87;;
7501;SDS011;3792;47.740;7.606;2023-05-07T19:56:59;2.40;;;1.70;;
7501;SDS011;3792;47.740;7.606;2023-05-07T19:59:26;1.73;;;1.63;;
7501;SDS011;3792;47.740;7.606;2023-05-07T20:01:54;2.33;;;1.53;;
7501;SDS011;3792;47.740;7.606;2023-05-07T20:04:21;2.10;;;1.90;;
7501;SDS011;3792;47.740;7.606;2023-05-07T20:06:53;2.90;;;1.60;;
7501;SDS011;3792;47.740;7.606;2023-05-07T20:09:20;4.80;;;1.67;;
7501;SDS011;3792;47.740;7.606;2023-05-07T20:11:47;1.20;;;1.20;;
7501;SDS011;3792;47.740;7.606;2023-05-07T20:14:15;1.73;;;1.63;;
7501;SDS011;3792;47.740;7.606;2023-05-07T20:16:45;1.67;;;1.57;;
7501;SDS011;3792;47.740;7.606;2023-05-07T20:19:14;2.90;;;1.60;;
7501;SDS011;3792;47.740;7.606;2023-05-07T20:21:42;2.70;;;1.37;;
7501;SDS011;3792;47.740;7.606;2023-05-07T20:24:11;1.10;;;1.10;;
7501;SDS011;3792;47.740;7.606;2023-05-07T20:26:43;1.40;;;1.40;;
7501;SDS011;3792;47.740;7.606;2023-05-07T20:29:11;3.10;;;1.67;;
7501;SDS011;3792;47.740;7.606;2023-05-07T20:31:38;1.57;;;1.47;;
7501;SDS011;3792;47.740;7.606;2023-05-07T20:34:08;1.97;;;1.40;;
7501;SDS011;3792;47.740;7.606;2023-05-07T20:36:37;1.83;;;1.50;;
7501;SDS011;3792;47.740;7.606;2023-05-07T20:39:04;3.87;;;1.63;;
7501;SDS011;3792;47.740;7.606;2023-05-07T20:41:31;1.53;;;1.43;;
7501;SDS011;3792;47.740;7.606;2023-05-07T20:43:58;1.97;;;1.80;;
7501;SDS011;3792;47.740;7.606;2023-05-07T20:46:26;1.77;;;1.67;;
7501;SDS011;3792;47.740;7.606;2023-05-07T20:48:53;2.13;;;1.60;;
7501;SDS011;3792;47.740;7.606;2023-05-07T20:51:20;2.80;;;2.13;;
7501;SDS011;3792;47.740;7.606;2023-05-07T20:53:49;8.27;;;3.60;;
7501;SDS011;3792;47.740;7.606;2023-05-07T20:56:17;3.20;;;1.90;;
7501;SDS011;3792;47.740;7.606;2023-05-07T20:58:44;7.63;;;4.20;;
7501;SDS011;3792;47.740;7.606;2023-05-07T21:01:11;20.17;;;9.17;;
7501;SDS011;3792;47.740;7.606;2023-05-07T21:03:38;14.50;;;5.87;;
7501;SDS011;3792;47.740;7.606;2023-05-07T21:06:05;16.53;;;6.97;;
7501;SDS011;3792;47.740;7.606;2023-05-07T21:08:32;5.43;;;3.30;;
7501;SDS011;3792;47.740;7.606;2023-05-07T21:11:01;7.40;;;2.67;;
7501;SDS011;3792;47.740;7.606;2023-05-07T21:13:28;4.30;;;2.20;;
7501;SDS011;3792;47.740;7.606;2023-05-07T21:15:55;3.03;;;2.10;;
7501;SDS011;3792;47.740;7.606;2023-05-07T21:18:23;3.13;;;2.23;;
7501;SDS011;3792;47.740;7.606;2023-05-07T21:20:50;5.17;;;2.73;;
7501;SDS011;3792;47.740;7.606;2023-05-07T21:23:17;2.20;;;1.90;;
7501;SDS011;3792;47.740;7.606;2023-05-07T21:25:44;3.23;;;1.40;;
7501;SDS011;3792;47.740;7.606;2023-05-07T21:28:13;1.73;;;1.63;;
7501;SDS011;3792;47.740;7.606;2023-05-07T21:30:40;5.30;;;2.17;;
7501;SDS011;3792;47.740;7.606;2023-05-07T21:33:07;5.43;;;1.77;;
7501;SDS011;3792;47.740;7.606;2023-05-07T21:35:35;2.63;;;1.70;;
7501;SDS011;3792;47.740;7.606;2023-05-07T21:38:02;3.00;;;1.60;;
7501;SDS011;3792;47.740;7.606;2023-05-07T21:40:29;3.07;;;1.73;;
7501;SDS011;3792;47.740;7.606;2023-05-07T21:42:56;1.50;;;1.27;;
7501;SDS011;3792;47.740;7.606;2023-05-07T21:45:25;1.50;;;1.40;;
7501;SDS011;3792;47.740;7.606;2023-05-07T21:47:52;2.90;;;1.57;;
7501;SDS011;3792;47.740;7.606;2023-05-07T21:50:20;1.60;;;1.43;;
7501;SDS011;3792;47.740;7.606;2023-05-07T21:52:47;1.97;;;1.40;;
7501;SDS011;3792;47.740;7.606;2023-05-07T21:55:16;1.30;;;1.20;;
7501;SDS011;3792;47.740;7.606;2023-05-07T21:57:43;2.40;;;1.47;;
7501;SDS011;3792;47.740;7.606;2023-05-07T22:00:10;2.07;;;1.50;;
7501;SDS011;3792;47.740;7.606;2023-05-07T22:02:39;1.33;;;1.23;;
7501;SDS011;3792;47.740;7.606;2023-05-07T22:05:07;1.77;;;1.60;;
7501;SDS011;3792;47.740;7.606;2023-05-07T22:07:34;1.63;;;1.37;;
7501;SDS011;3792;47.740;7.606;2023-05-07T22:10:01;1.50;;;1.40;;
7501;SDS011;3792;47.740;7.606;2023-05-07T22:12:29;2.60;;;1.47;;
7501;SDS011;3792;47.740;7.606;2023-05-07T22:14:56;1.20;;;1.20;;
7501;SDS011;3792;47.740;7.606;2023-05-07T22:17:23;1.60;;;1.50;;
7501;SDS011;3792;47.740;7.606;2023-05-07T22:19:51;1.50;;;1.40;;
7501;SDS011;3792;47.740;7.606;2023-05-07T22:22:18;3.40;;;1.50;;
7501;SDS011;3792;47.740;7.606;2023-05-07T22:24:45;1.60;;;1.50;;
7501;SDS011;3792;47.740;7.606;2023-05-07T22:27:12;3.10;;;1.30;;
7501;SDS011;3792;47.740;7.606;2023-05-07T22:29:39;2.93;;;1.50;;
7501;SDS011;3792;47.740;7.606;2023-05-07T22:32:06;3.10;;;1.60;;
7501;SDS011;3792;47.740;7.606;2023-05-07T22:34:33;1.70;;;1.60;;
7501;SDS011;3792;47.740;7.606;2023-05-07T22:37:02;1.40;;;1.30;;
7501;SDS011;3792;47.740;7.606;2023-05-07T22:39:29;2.50;;;1.37;;
7501;SDS011;3792;47.740;7.606;2023-05-07T22:41:58;1.97;;;1.50;;
7501;SDS011;3792;47.740;7.606;2023-05-07T22:44:26;2.63;;;1.50;;
7501;SDS011;3792;47.740;7.606;2023-05-07T22:46:53;1.90;;;1.80;;
7501;SDS011;3792;47.740;7.606;2023-05-07T22:49:20;1.73;;;1.50;;
7501;SDS011;3792;47.740;7.606;2023-05-07T22:51:47;2.77;;;1.50;;
7501;SDS011;3792;47.740;7.606;2023-05-07T22:54:15;1.40;;;1.30;;
7501;SDS011;3792;47.740;7.606;2023-05-07T22:56:42;1.40;;;1.30;;
7501;SDS011;3792;47.740;7.606;2023-05-07T22:59:10;1.50;;;1.40;;
7501;SDS011;3792;47.740;7.606;2023-05-07T23:01:37;3.53;;;1.43;;
7501;SDS011;3792;47.740;7.606;2023-05-07T23:04:04;2.23;;;1.50;;
7501;SDS011;3792;47.740;7.606;2023-05-07T23:06:31;2.30;;;1.30;;
7501;SDS011;3792;47.740;7.606;2023-05-07T23:08:58;2.47;;;1.40;;
7501;SDS011;3792;47.740;7.606;2023-05-07T23:11:27;1.20;;;1.20;;
7501;SDS011;3792;47.740;7.606;2023-05-07T23:13:54;4.93;;;1.47;;
7501;SDS011;3792;47.740;7.606;2023-05-07T23:16:21;2.00;;;1.77;;
7501;SDS011;3792;47.740;7.606;2023-05-07T23:18:48;1.50;;;1.40;;
7501;SDS011;3792;47.740;7.606;2023-05-07T23:21:15;1.47;;;1.23;;
7501;SDS011;3792;47.740;7.606;2023-05-07T23:23:42;1.33;;;1.23;;
7501;SDS011;3792;47.740;7.606;2023-05-07T23:26:11;3.80;;;1.33;;
7501;SDS011;3792;47.740;7.606;2023-05-07T23:28:40;3.17;;;1.50;;
7501;SDS011;3792;47.740;7.606;2023-05-07T23:31:07;2.20;;;1.20;;
7501;SDS011;3792;47.740;7.606;2023-05-07T23:33:34;3.20;;;1.50;;
7501;SDS011;3792;47.740;7.606;2023-05-07T23:36:01;1.50;;;1.40;;